Time;durP1;ratioP1;P1;durP2;ratioP2;P2;SDS_P1;SDS_P2;PMS_P1;PMS_P2;Temp;Humidity;BMP_temperature;BMP_pressure;BME280_temperature;BME280_humidity;BME280_pressure;Samples;Min_cycle;Max_cycle;Signal;HPM_P1;HPM_P2
2022/05/14 00:02:57;;;;;;;7.00;3.33;;;;;;;;;;4994960;28;20545;-84
2022/05/14 00:06:05;;;;;;;8.03;3.80;;;;;;;;;;4994563;28;20198;-84
2022/05/14 00:09:09;;;;;;;4.10;3.70;;;;;;;;;;4994906;28;20225;-84
2022/05/14 00:15:41;;;;;;;5.23;4.23;;;;;;;;;;5005940;28;20182;-84
2022/05/14 00:18:46;;;;;;;4.63;4.10;;;;;;;;;;4994737;28;20217;-85
2022/05/14 00:21:50;;;;;;;4.37;3.97;;;;;;;;;;4994760;28;20517;-83
2022/05/14 00:24:54;;;;;;;5.97;4.33;;;;;;;;;;4994938;28;20522;-84
2022/05/14 00:27:58;;;;;;;7.83;4.73;;;;;;;;;;4995748;28;20221;-84
2022/05/14 00:31:02;;;;;;;6.50;4.50;;;;;;;;;;5006917;28;20185;-84
2022/05/14 00:34:07;;;;;;;6.47;3.67;;;;;;;;;;4995514;28;20173;-84
2022/05/14 00:37:10;;;;;;;7.67;3.97;;;;;;;;;;4994434;28;20220;-84
2022/05/14 00:40:39;;;;;;;5.27;3.83;;;;;;;;;;4995741;28;20510;-84
2022/05/14 00:43:53;;;;;;;6.87;3.80;;;;;;;;;;5011910;28;20177;-84
2022/05/14 00:47:04;;;;;;;7.93;3.70;;;;;;;;;;5005771;28;20182;-84
2022/05/14 00:50:22;;;;;;;6.83;3.70;;;;;;;;;;4994444;28;20174;-84
2022/05/14 00:53:31;;;;;;;6.93;4.53;;;;;;;;;;4995803;28;20186;-84
2022/05/14 00:56:40;;;;;;;9.03;4.00;;;;;;;;;;4996172;28;20651;-84
2022/05/14 00:59:45;;;;;;;8.67;4.33;;;;;;;;;;5017395;28;20178;-84
2022/05/14 01:02:49;;;;;;;5.77;4.10;;;;;;;;;;4993174;28;20174;-84
2022/05/14 01:05:55;;;;;;;5.17;3.70;;;;;;;;;;4995139;28;20177;-85
2022/05/14 01:08:59;;;;;;;6.10;4.13;;;;;;;;;;4994398;28;20233;-84
2022/05/14 01:12:05;;;;;;;5.90;4.00;;;;;;;;;;4994063;28;20545;-84
2022/05/14 01:15:15;;;;;;;4.60;3.67;;;;;;;;;;4994490;28;20178;-84
2022/05/14 01:18:24;;;;;;;5.53;3.70;;;;;;;;;;5003842;28;20213;-83
2022/05/14 01:21:49;;;;;;;8.10;4.20;;;;;;;;;;5015215;28;20625;-84
2022/05/14 01:28:27;;;;;;;7.03;4.03;;;;;;;;;;5015105;28;20221;-84
2022/05/14 01:31:33;;;;;;;5.20;4.23;;;;;;;;;;4992393;28;20190;-84
2022/05/14 01:34:37;;;;;;;6.80;3.37;;;;;;;;;;5003719;28;20186;-84
2022/05/14 01:37:44;;;;;;;5.33;3.63;;;;;;;;;;4992317;28;20692;-84
2022/05/14 01:40:48;;;;;;;6.70;4.07;;;;;;;;;;4992904;28;20621;-84
2022/05/14 01:43:52;;;;;;;6.83;4.23;;;;;;;;;;5004157;28;20177;-84
2022/05/14 01:46:56;;;;;;;10.17;4.83;;;;;;;;;;4992920;28;20181;-83
2022/05/14 01:50:02;;;;;;;9.77;4.30;;;;;;;;;;4992728;28;20178;-84
2022/05/14 01:53:07;;;;;;;4.50;3.90;;;;;;;;;;4992448;28;20636;-84
2022/05/14 01:56:12;;;;;;;6.83;3.67;;;;;;;;;;5003996;28;20190;-85
2022/05/14 01:59:15;;;;;;;6.10;3.70;;;;;;;;;;4992609;28;20177;-84
2022/05/14 02:02:21;;;;;;;9.87;4.13;;;;;;;;;;4992209;28;20636;-83
2022/05/14 02:05:26;;;;;;;7.70;4.10;;;;;;;;;;4992286;28;20178;-83
2022/05/14 02:08:33;;;;;;;7.73;4.23;;;;;;;;;;4991944;28;20226;-83
2022/05/14 02:11:39;;;;;;;8.30;4.67;;;;;;;;;;4992100;28;20189;-85
2022/05/14 02:14:51;;;;;;;7.20;4.37;;;;;;;;;;5002681;28;20201;-83
2022/05/14 02:17:57;;;;;;;7.70;4.43;;;;;;;;;;5002948;28;20221;-83
2022/05/14 02:21:02;;;;;;;5.97;4.20;;;;;;;;;;4991440;28;20197;-83
2022/05/14 02:24:07;;;;;;;6.53;4.50;;;;;;;;;;4991189;28;20193;-83
2022/05/14 02:27:10;;;;;;;9.33;4.30;;;;;;;;;;4991550;28;20557;-83
2022/05/14 02:30:14;;;;;;;8.03;4.47;;;;;;;;;;4991588;28;20532;-84
2022/05/14 02:33:19;;;;;;;7.63;4.80;;;;;;;;;;5002673;28;20197;-83
2022/05/14 02:36:24;;;;;;;7.00;4.53;;;;;;;;;;4991586;28;20182;-83
2022/05/14 02:39:27;;;;;;;10.17;4.33;;;;;;;;;;4991635;28;20177;-84
2022/05/14 02:42:32;;;;;;;6.53;4.47;;;;;;;;;;4991872;28;20186;-84
2022/05/14 02:45:37;;;;;;;8.10;4.10;;;;;;;;;;4991541;28;20197;-83
2022/05/14 02:48:41;;;;;;;6.37;4.30;;;;;;;;;;5013418;28;20229;-83
2022/05/14 02:51:47;;;;;;;6.30;4.50;;;;;;;;;;5013461;28;20555;-84
2022/05/14 02:54:51;;;;;;;5.97;4.30;;;;;;;;;;5002359;28;20197;-85
2022/05/14 02:57:56;;;;;;;7.10;3.90;;;;;;;;;;5002827;28;20213;-83
2022/05/14 03:01:00;;;;;;;5.20;4.03;;;;;;;;;;4991468;28;20181;-84
2022/05/14 03:04:04;;;;;;;8.33;4.87;;;;;;;;;;4991376;28;20181;-83
2022/05/14 03:07:11;;;;;;;7.07;4.17;;;;;;;;;;5002018;28;20220;-84
2022/05/14 03:10:16;;;;;;;6.77;4.90;;;;;;;;;;4991470;28;20656;-84
2022/05/14 03:13:20;;;;;;;8.27;4.90;;;;;;;;;;4991241;28;20178;-83
2022/05/14 03:16:24;;;;;;;6.20;4.53;;;;;;;;;;5013455;28;20182;-83
2022/05/14 03:19:28;;;;;;;6.10;4.53;;;;;;;;;;4991088;28;20197;-84
2022/05/14 03:22:37;;;;;;;8.73;4.40;;;;;;;;;;4990865;28;20181;-83
2022/05/14 03:25:41;;;;;;;7.30;4.93;;;;;;;;;;4991306;28;20189;-83
2022/05/14 03:28:46;;;;;;;8.10;4.60;;;;;;;;;;5005780;28;20224;-84
2022/05/14 03:31:50;;;;;;;6.67;4.03;;;;;;;;;;5005836;28;20187;-84
2022/05/14 03:34:55;;;;;;;5.90;4.57;;;;;;;;;;5005732;28;20185;-83
2022/05/14 03:38:00;;;;;;;7.87;5.10;;;;;;;;;;4994498;28;20217;-83
2022/05/14 03:41:04;;;;;;;8.77;4.40;;;;;;;;;;5006027;28;20174;-84
2022/05/14 03:44:09;;;;;;;6.10;4.47;;;;;;;;;;5017330;28;20173;-84
2022/05/14 03:47:12;;;;;;;6.13;4.40;;;;;;;;;;5005357;28;20213;-84
2022/05/14 03:50:17;;;;;;;6.50;4.33;;;;;;;;;;4994500;28;20197;-83
2022/05/14 03:53:22;;;;;;;6.90;4.10;;;;;;;;;;4994213;28;20556;-84
2022/05/14 03:56:26;;;;;;;5.13;4.23;;;;;;;;;;5006668;28;20182;-85
2022/05/14 03:59:31;;;;;;;5.70;4.33;;;;;;;;;;5007040;28;20178;-84
2022/05/14 04:02:35;;;;;;;5.23;4.00;;;;;;;;;;5006904;28;20197;-84
2022/05/14 04:05:39;;;;;;;6.80;4.20;;;;;;;;;;5006858;28;20181;-84
2022/05/14 04:08:43;;;;;;;5.80;4.40;;;;;;;;;;5033966;23;20234;-81
2022/05/14 04:11:48;;;;;;;7.03;4.17;;;;;;;;;;5016779;28;20181;-81
2022/05/14 04:14:52;;;;;;;5.97;4.10;;;;;;;;;;5005764;28;20178;-83
2022/05/14 04:17:57;;;;;;;5.97;3.93;;;;;;;;;;5027783;28;20217;-81
2022/05/14 04:21:01;;;;;;;6.27;4.10;;;;;;;;;;5005485;28;20177;-82
2022/05/14 04:24:05;;;;;;;5.40;4.20;;;;;;;;;;5004885;28;20552;-83
2022/05/14 04:27:10;;;;;;;4.50;3.40;;;;;;;;;;5005183;28;20186;-80
2022/05/14 04:30:16;;;;;;;4.97;3.73;;;;;;;;;;5016392;28;20590;-82
2022/05/14 04:33:21;;;;;;;7.83;4.10;;;;;;;;;;5004900;28;20181;-82
2022/05/14 04:36:26;;;;;;;8.77;4.93;;;;;;;;;;5027771;28;20186;-81
2022/05/14 04:39:33;;;;;;;10.53;4.10;;;;;;;;;;5004500;28;20217;-82
2022/05/14 04:42:39;;;;;;;7.10;4.37;;;;;;;;;;5005892;28;20193;-81
2022/05/14 04:45:43;;;;;;;5.20;4.37;;;;;;;;;;5016244;28;20173;-82
2022/05/14 04:48:49;;;;;;;7.27;4.30;;;;;;;;;;5004734;28;20213;-80
2022/05/14 04:51:54;;;;;;;5.10;4.10;;;;;;;;;;5015629;28;20205;-81
2022/05/14 04:54:58;;;;;;;13.30;7.23;;;;;;;;;;5004167;28;20197;-83
2022/05/14 04:58:07;;;;;;;10.43;6.13;;;;;;;;;;5004576;28;20217;-80
2022/05/14 05:01:12;;;;;;;19.10;12.90;;;;;;;;;;5004217;28;20178;-81
2022/05/14 05:04:16;;;;;;;14.70;10.70;;;;;;;;;;5015494;28;20188;-82
2022/05/14 05:07:20;;;;;;;21.50;14.27;;;;;;;;;;4992415;28;20208;-81
2022/05/14 05:10:26;;;;;;;15.93;12.07;;;;;;;;;;5003571;28;20722;-81
2022/05/14 05:13:31;;;;;;;13.23;8.83;;;;;;;;;;5004153;28;20189;-82
2022/05/14 05:16:36;;;;;;;7.80;6.20;;;;;;;;;;5004104;28;20186;-81
2022/05/14 05:19:40;;;;;;;9.77;6.03;;;;;;;;;;5014792;28;20181;-81
2022/05/14 05:22:44;;;;;;;10.50;6.93;;;;;;;;;;5026118;28;20177;-81
2022/05/14 05:25:49;;;;;;;7.23;6.10;;;;;;;;;;5003552;28;20178;-81
2022/05/14 05:28:53;;;;;;;8.63;5.03;;;;;;;;;;4992022;28;20217;-81
2022/05/14 05:31:57;;;;;;;5.77;5.03;;;;;;;;;;5003495;28;20186;-81
2022/05/14 05:35:03;;;;;;;8.17;5.80;;;;;;;;;;5003364;28;20189;-82
2022/05/14 05:38:07;;;;;;;7.83;5.40;;;;;;;;;;5003176;28;20213;-81
2022/05/14 05:41:11;;;;;;;13.27;6.37;;;;;;;;;;5002909;28;20193;-82
2022/05/14 05:44:16;;;;;;;11.10;7.97;;;;;;;;;;5014192;28;20209;-82
2022/05/14 05:47:20;;;;;;;10.87;8.23;;;;;;;;;;5014220;28;20181;-82
2022/05/14 05:50:24;;;;;;;7.23;5.77;;;;;;;;;;5002344;28;20201;-81
2022/05/14 05:56:57;;;;;;;7.10;5.67;;;;;;;;;;5002972;28;20186;-82
2022/05/14 06:00:05;;;;;;;6.23;5.47;;;;;;;;;;5014508;28;20194;-82
2022/05/14 06:03:15;;;;;;;9.73;5.33;;;;;;;;;;5024792;28;20632;-82
2022/05/14 06:06:19;;;;;;;7.70;4.90;;;;;;;;;;5014540;28;20185;-84
2022/05/14 06:09:26;;;;;;;9.23;5.47;;;;;;;;;;5024988;28;20229;-84
2022/05/14 06:12:30;;;;;;;10.97;5.03;;;;;;;;;;5014032;28;20177;-84
2022/05/14 06:15:34;;;;;;;10.43;4.83;;;;;;;;;;5002566;28;20177;-84
2022/05/14 06:18:38;;;;;;;8.00;4.90;;;;;;;;;;5024976;28;20217;-82
2022/05/14 06:21:42;;;;;;;5.20;4.30;;;;;;;;;;5002404;28;20181;-82
2022/05/14 06:24:46;;;;;;;4.53;4.13;;;;;;;;;;5013708;28;20189;-82
2022/05/14 06:27:51;;;;;;;7.50;4.30;;;;;;;;;;5013628;28;20688;-82
2022/05/14 06:30:58;;;;;;;7.43;4.67;;;;;;;;;;5013749;28;20209;-82
2022/05/14 06:34:02;;;;;;;8.50;5.00;;;;;;;;;;5013761;28;20185;-81
2022/05/14 06:37:07;;;;;;;9.30;5.20;;;;;;;;;;5024732;28;20181;-82
2022/05/14 06:40:12;;;;;;;7.27;4.37;;;;;;;;;;5002597;28;20513;-82
2022/05/14 06:43:16;;;;;;;6.57;4.57;;;;;;;;;;5002228;28;20177;-82
2022/05/14 06:46:20;;;;;;;7.13;4.57;;;;;;;;;;5002151;28;20181;-82
2022/05/14 06:49:24;;;;;;;8.57;4.70;;;;;;;;;;5001767;28;20225;-82
2022/05/14 06:52:28;;;;;;;6.80;4.93;;;;;;;;;;5013259;28;20209;-82
2022/05/14 06:55:36;;;;;;;8.57;4.53;;;;;;;;;;5013495;28;20189;-82
2022/05/14 06:58:41;;;;;;;8.27;5.53;;;;;;;;;;4990781;28;20217;-82
2022/05/14 07:01:47;;;;;;;8.43;5.23;;;;;;;;;;5003716;28;20170;-82
2022/05/14 07:08:14;;;;;;;6.23;4.40;;;;;;;;;;5016704;28;20229;-82
2022/05/14 07:11:18;;;;;;;6.53;4.10;;;;;;;;;;5006077;28;20213;-82
2022/05/14 07:14:24;;;;;;;6.40;4.27;;;;;;;;;;5017347;28;20194;-82
2022/05/14 07:17:29;;;;;;;5.13;3.70;;;;;;;;;;5028461;28;20209;-82
2022/05/14 07:20:33;;;;;;;8.37;4.00;;;;;;;;;;5005328;28;20197;-82
2022/05/14 07:23:37;;;;;;;10.43;3.90;;;;;;;;;;5016803;28;20177;-82
2022/05/14 07:26:43;;;;;;;4.73;3.60;;;;;;;;;;5027857;28;20197;-82
2022/05/14 07:29:47;;;;;;;5.43;3.30;;;;;;;;;;5005574;28;20221;-82
2022/05/14 07:32:51;;;;;;;7.97;3.30;;;;;;;;;;5017552;28;20178;-82
2022/05/14 07:36:00;;;;;;;5.33;2.90;;;;;;;;;;5016742;28;20182;-82
2022/05/14 07:39:05;;;;;;;7.47;3.37;;;;;;;;;;5027649;28;20217;-82
2022/05/14 07:42:15;;;;;;;3.73;2.47;;;;;;;;;;5017861;28;20182;-82
2022/05/14 07:45:35;;;;;;;4.80;2.77;;;;;;;;;;5016982;28;20174;-82
2022/05/14 07:48:40;;;;;;;7.13;2.90;;;;;;;;;;5016520;28;20217;-82
2022/05/14 07:51:45;;;;;;;4.43;2.47;;;;;;;;;;5016705;28;20213;-82
2022/05/14 07:54:49;;;;;;;4.33;2.50;;;;;;;;;;5016298;28;20202;-82
2022/05/14 07:57:54;;;;;;;5.80;3.00;;;;;;;;;;5005017;28;20209;-82
2022/05/14 08:00:58;;;;;;;4.03;2.20;;;;;;;;;;5016208;28;20536;-82
2022/05/14 08:04:03;;;;;;;5.30;2.13;;;;;;;;;;5004902;28;20201;-82
2022/05/14 08:07:07;;;;;;;5.10;2.00;;;;;;;;;;5004787;28;20189;-82
2022/05/14 08:10:13;;;;;;;4.40;2.00;;;;;;;;;;5016107;28;20209;-82
2022/05/14 08:13:19;;;;;;;4.00;1.50;;;;;;;;;;5015430;28;20201;-82
2022/05/14 08:16:23;;;;;;;9.37;1.70;;;;;;;;;;5016055;28;20551;-82
2022/05/14 08:19:27;;;;;;;5.40;1.17;;;;;;;;;;5004577;28;20220;-82
2022/05/14 08:25:56;;;;;;;4.30;1.27;;;;;;;;;;5015395;28;20194;-82
2022/05/14 08:29:00;;;;;;;8.77;4.13;;;;;;;;;;5003587;28;20216;-83
2022/05/14 08:32:05;;;;;;;5.97;1.48;;;;;;;;;;4992745;28;20176;-82
2022/05/14 08:35:12;;;;;;;4.30;0.90;;;;;;;;;;4992859;28;20203;-83
2022/05/14 08:38:17;;;;;;;4.43;1.23;;;;;;;;;;4992541;28;20219;-84
2022/05/14 08:41:22;;;;;;;4.88;1.20;;;;;;;;;;4990689;28;20175;-83
2022/05/14 08:44:31;;;;;;;2.97;0.98;;;;;;;;;;4973202;28;20188;-83
2022/05/14 08:47:44;;;;;;;3.92;1.05;;;;;;;;;;5004213;28;20217;-83
2022/05/14 08:51:02;;;;;;;2.28;0.90;;;;;;;;;;5006530;28;20220;-82
2022/05/14 08:54:07;;;;;;;1.90;1.10;;;;;;;;;;5006435;28;20197;-84
2022/05/14 08:57:24;;;;;;;4.70;1.17;;;;;;;;;;5000662;28;20193;-83
2022/05/14 09:00:29;;;;;;;3.95;1.10;;;;;;;;;;4973350;28;20185;-83
2022/05/14 09:03:33;;;;;;;3.13;1.20;;;;;;;;;;4984186;28;20185;-83
2022/05/14 09:06:39;;;;;;;5.95;1.10;;;;;;;;;;4996260;28;20187;-83
2022/05/14 09:09:48;;;;;;;2.67;1.25;;;;;;;;;;4986040;28;20214;-83
2022/05/14 09:13:09;;;;;;;9.98;1.73;;;;;;;;;;4984643;28;20171;-83
2022/05/14 09:16:37;;;;;;;3.85;1.25;;;;;;;;;;5004466;28;20309;-83
2022/05/14 09:19:43;;;;;;;6.28;1.40;;;;;;;;;;4986713;28;20641;-83
2022/05/14 09:22:55;;;;;;;5.53;1.30;;;;;;;;;;4980250;28;20190;-83
2022/05/14 09:26:20;;;;;;;3.63;1.40;;;;;;;;;;4984667;28;20187;-83
2022/05/14 09:29:33;;;;;;;2.92;1.08;;;;;;;;;;4984865;28;20226;-83
2022/05/14 09:32:44;;;;;;;4.20;1.33;;;;;;;;;;4984379;28;20530;-83
2022/05/14 09:35:58;;;;;;;3.17;1.30;;;;;;;;;;4995020;28;20194;-83
2022/05/14 09:39:07;;;;;;;3.95;1.30;;;;;;;;;;4984111;28;20569;-83
2022/05/14 09:42:40;;;;;;;3.53;1.27;;;;;;;;;;4991930;28;20664;-83
2022/05/14 09:46:10;;;;;;;2.63;1.48;;;;;;;;;;5026169;28;20186;-84
2022/05/14 09:49:23;;;;;;;5.57;1.38;;;;;;;;;;5021587;28;20699;-83
2022/05/14 09:52:32;;;;;;;2.85;1.13;;;;;;;;;;4997775;28;20182;-84
2022/05/14 09:55:58;;;;;;;3.85;1.33;;;;;;;;;;5005606;28;20522;-83
2022/05/14 09:59:21;;;;;;;3.72;1.60;;;;;;;;;;4984471;28;20222;-84
2022/05/14 10:02:44;;;;;;;2.53;1.38;;;;;;;;;;5002227;28;20178;-84
2022/05/14 10:05:57;;;;;;;2.60;1.33;;;;;;;;;;5003005;28;20194;-82
2022/05/14 10:09:29;;;;;;;2.85;1.40;;;;;;;;;;5036987;23;20224;-84
2022/05/14 10:12:40;;;;;;;5.03;1.55;;;;;;;;;;5044704;28;20180;-88
2022/05/14 10:15:49;;;;;;;3.75;1.33;;;;;;;;;;5056286;28;20176;-83
2022/05/14 10:19:04;;;;;;;2.53;1.02;;;;;;;;;;5042824;28;20216;-84
2022/05/14 10:22:20;;;;;;;1.58;1.10;;;;;;;;;;5050708;28;20193;-84
2022/05/14 10:29:40;;;;;;;3.83;1.13;;;;;;;;;;5041146;28;20220;-83
2022/05/14 10:32:47;;;;;;;2.20;1.23;;;;;;;;;;5039040;28;20181;-85
2022/05/14 10:36:02;;;;;;;1.90;1.23;;;;;;;;;;5042186;28;20180;-85
2022/05/14 10:39:13;;;;;;;3.88;1.58;;;;;;;;;;5044166;28;20212;-85
2022/05/14 10:42:29;;;;;;;4.93;1.35;;;;;;;;;;5048373;28;20176;-85
2022/05/14 10:45:41;;;;;;;2.15;1.20;;;;;;;;;;5029461;28;20185;-85
2022/05/14 10:48:52;;;;;;;2.08;1.08;;;;;;;;;;5050777;28;20280;-85
2022/05/14 10:51:56;;;;;;;4.20;1.40;;;;;;;;;;5038282;28;20208;-85
2022/05/14 10:55:01;;;;;;;2.83;1.30;;;;;;;;;;5037418;28;20623;-89
2022/05/14 10:58:19;;;;;;;11.23;1.70;;;;;;;;;;5034172;28;20212;-86
2022/05/14 11:01:27;;;;;;;4.57;1.40;;;;;;;;;;5032526;28;20176;-86
2022/05/14 11:04:44;;;;;;;2.90;1.30;;;;;;;;;;5031403;28;20200;-86
2022/05/14 11:07:48;;;;;;;3.15;1.10;;;;;;;;;;5011279;28;20528;-86
2022/05/14 11:11:28;;;;;;;2.35;1.30;;;;;;;;;;5025476;28;20216;-85
2022/05/14 11:14:45;;;;;;;3.10;1.25;;;;;;;;;;4993583;28;20196;-86
2022/05/14 11:18:01;;;;;;;5.30;1.23;;;;;;;;;;5013071;28;20189;-86
2022/05/14 11:21:05;;;;;;;3.85;1.42;;;;;;;;;;5011641;28;20177;-86
2022/05/14 11:24:12;;;;;;;2.75;1.30;;;;;;;;;;5035456;28;20181;-84
2022/05/14 11:27:32;;;;;;;2.55;1.27;;;;;;;;;;5048429;28;20181;-85
2022/05/14 11:30:55;;;;;;;1.95;1.20;;;;;;;;;;5023203;28;20256;-85
2022/05/14 11:34:13;;;;;;;3.35;1.40;;;;;;;;;;5038158;28;20181;-85
2022/05/14 11:37:33;;;;;;;2.13;1.27;;;;;;;;;;5022607;28;20625;-85
2022/05/14 11:40:37;;;;;;;3.10;1.50;;;;;;;;;;5012249;28;20185;-85
2022/05/14 11:43:41;;;;;;;4.72;1.38;;;;;;;;;;5021807;28;20181;-86
2022/05/14 11:46:48;;;;;;;2.10;1.25;;;;;;;;;;5012736;28;20181;-86
2022/05/14 11:49:53;;;;;;;2.58;1.15;;;;;;;;;;5015237;28;20216;-85
2022/05/14 11:53:09;;;;;;;5.75;1.30;;;;;;;;;;5035250;28;20220;-84
2022/05/14 11:56:29;;;;;;;1.95;1.30;;;;;;;;;;5049928;28;20184;-84
2022/05/14 11:59:48;;;;;;;2.15;1.33;;;;;;;;;;5040701;28;20567;-84
2022/05/14 12:03:15;;;;;;;3.10;1.73;;;;;;;;;;5038798;28;20193;-84
2022/05/14 12:06:38;;;;;;;3.85;1.38;;;;;;;;;;5049601;28;20564;-84
2022/05/14 12:10:20;;;;;;;3.22;1.40;;;;;;;;;;5027020;28;20224;-84
2022/05/14 12:13:40;;;;;;;2.17;1.40;;;;;;;;;;5054535;28;20173;-84
2022/05/14 12:16:53;;;;;;;3.45;1.10;;;;;;;;;;5045322;28;20196;-84
2022/05/14 12:19:58;;;;;;;2.30;0.98;;;;;;;;;;5044713;28;20220;-85
2022/05/14 12:23:05;;;;;;;2.53;1.10;;;;;;;;;;5055957;28;20199;-85
2022/05/14 12:26:31;;;;;;;2.60;1.20;;;;;;;;;;5013870;28;20173;-85
2022/05/14 12:29:35;;;;;;;6.05;1.30;;;;;;;;;;5013735;28;20217;-85
2022/05/14 12:36:10;;;;;;;2.78;1.10;;;;;;;;;;5030097;28;20189;-84
2022/05/14 12:39:27;;;;;;;4.03;1.10;;;;;;;;;;5013604;28;20208;-84
2022/05/14 12:42:40;;;;;;;5.63;1.15;;;;;;;;;;5047189;28;20189;-85
2022/05/14 12:45:50;;;;;;;3.75;1.52;;;;;;;;;;5019060;28;20185;-84
2022/05/14 12:48:57;;;;;;;6.88;1.63;;;;;;;;;;5047791;28;20208;-85
2022/05/14 12:52:10;;;;;;;2.85;1.00;;;;;;;;;;5021307;28;20209;-83
2022/05/14 12:55:16;;;;;;;3.63;1.20;;;;;;;;;;5063510;28;20189;-83
2022/05/14 12:58:20;;;;;;;4.25;1.48;;;;;;;;;;5051420;28;20220;-85
2022/05/14 13:01:29;;;;;;;2.58;1.00;;;;;;;;;;5034099;28;20647;-86
2022/05/14 13:04:48;;;;;;;5.13;1.30;;;;;;;;;;5027607;28;20197;-87
2022/05/14 13:07:57;;;;;;;3.42;1.05;;;;;;;;;;5025504;28;20197;-87
2022/05/14 13:11:10;;;;;;;2.28;1.15;;;;;;;;;;5031133;28;20193;-86
2022/05/14 13:14:23;;;;;;;4.68;1.10;;;;;;;;;;5040336;28;20185;-85
2022/05/14 13:17:33;;;;;;;2.78;1.00;;;;;;;;;;5049005;28;20192;-85
2022/05/14 13:20:38;;;;;;;2.17;0.90;;;;;;;;;;5035851;28;20635;-86
2022/05/14 13:24:03;;;;;;;3.03;1.05;;;;;;;;;;5036339;28;20623;-86
2022/05/14 13:27:11;;;;;;;2.92;1.20;;;;;;;;;;5060658;28;20180;-85
2022/05/14 13:30:17;;;;;;;4.13;1.10;;;;;;;;;;5035804;28;20181;-86
2022/05/14 13:33:27;;;;;;;2.08;1.20;;;;;;;;;;5036840;28;20209;-86
2022/05/14 13:40:00;;;;;;;7.00;1.20;;;;;;;;;;5028350;28;20221;-86
2022/05/14 13:43:10;;;;;;;3.22;0.93;;;;;;;;;;5041690;28;20525;-86
2022/05/14 13:46:24;;;;;;;5.90;1.30;;;;;;;;;;5059437;28;20655;-86
2022/05/14 13:50:15;;;;;;;2.65;1.00;;;;;;;;;;5043808;28;20221;-86
2022/05/14 13:54:39;;;;;;;3.22;1.00;;;;;;;;;;4938890;29;20200;-87
2022/05/14 13:57:55;;;;;;;2.35;1.10;;;;;;;;;;4990558;28;20201;-87
2022/05/14 14:01:23;;;;;;;3.47;1.00;;;;;;;;;;5112934;27;20816;-77
2022/05/14 14:04:32;;;;;;;1.70;0.80;;;;;;;;;;5092803;28;20258;-78
2022/05/14 14:07:39;;;;;;;2.80;1.20;;;;;;;;;;5093383;28;20195;-78
2022/05/14 14:10:44;;;;;;;2.88;1.05;;;;;;;;;;5070182;28;20226;-78
2022/05/14 14:13:48;;;;;;;5.38;1.15;;;;;;;;;;5109169;28;20194;-78
2022/05/14 14:16:53;;;;;;;1.92;0.95;;;;;;;;;;5092770;28;20183;-78
2022/05/14 14:19:57;;;;;;;2.60;0.75;;;;;;;;;;5092449;28;20207;-78
2022/05/14 14:23:04;;;;;;;3.60;1.00;;;;;;;;;;5093960;28;20197;-77
2022/05/14 14:26:09;;;;;;;1.88;0.98;;;;;;;;;;5107123;28;20202;-78
2022/05/14 14:29:13;;;;;;;2.47;0.90;;;;;;;;;;5093624;28;20183;-78
2022/05/14 14:32:17;;;;;;;2.47;0.85;;;;;;;;;;5095439;28;20219;-77
2022/05/14 14:35:22;;;;;;;2.58;0.77;;;;;;;;;;5101061;28;20199;-77
2022/05/14 14:38:26;;;;;;;2.40;0.93;;;;;;;;;;5079652;28;20185;-78
2022/05/14 14:41:30;;;;;;;3.65;1.00;;;;;;;;;;5070411;28;20207;-78
2022/05/14 14:44:34;;;;;;;2.92;0.90;;;;;;;;;;5092378;28;20180;-78
2022/05/14 14:47:41;;;;;;;4.47;0.90;;;;;;;;;;5086882;28;20174;-77
2022/05/14 14:50:45;;;;;;;2.78;0.90;;;;;;;;;;5111414;28;20210;-77
2022/05/14 14:53:50;;;;;;;2.25;0.70;;;;;;;;;;5088087;28;20637;-77
2022/05/14 14:56:54;;;;;;;1.40;0.68;;;;;;;;;;5109563;28;20187;-78
2022/05/14 14:59:59;;;;;;;1.60;0.82;;;;;;;;;;5081555;28;20223;-77
2022/05/14 15:03:20;;;;;;;2.65;0.90;;;;;;;;;;5110635;28;20206;-78
2022/05/14 15:06:24;;;;;;;3.88;0.95;;;;;;;;;;5100230;28;20179;-78
2022/05/14 15:09:29;;;;;;;1.55;0.70;;;;;;;;;;5099992;28;20661;-78
2022/05/14 15:12:34;;;;;;;1.38;0.80;;;;;;;;;;5099036;28;20214;-78
2022/05/14 15:15:40;;;;;;;4.65;1.05;;;;;;;;;;5097697;28;20194;-78
2022/05/14 15:18:44;;;;;;;2.42;1.02;;;;;;;;;;5096530;28;20828;-77
2022/05/14 15:21:48;;;;;;;3.55;0.93;;;;;;;;;;5098998;28;20211;-80
2022/05/14 15:24:54;;;;;;;2.33;1.05;;;;;;;;;;5092104;28;20193;-80
2022/05/14 15:27:58;;;;;;;1.48;0.90;;;;;;;;;;5100801;28;20197;-80
2022/05/14 15:31:09;;;;;;;1.42;0.80;;;;;;;;;;5079309;28;20217;-80
2022/05/14 15:34:14;;;;;;;3.40;1.10;;;;;;;;;;5087016;28;20197;-80
2022/05/14 15:37:19;;;;;;;2.72;0.80;;;;;;;;;;5086364;28;20188;-81
2022/05/14 15:40:24;;;;;;;5.30;1.20;;;;;;;;;;5102610;28;20207;-80
2022/05/14 15:43:30;;;;;;;5.40;2.33;;;;;;;;;;5096497;28;20189;-80
2022/05/14 15:46:35;;;;;;;4.38;1.35;;;;;;;;;;5081040;28;20186;-81
2022/05/14 15:49:44;;;;;;;3.60;1.05;;;;;;;;;;5081143;28;20550;-79
2022/05/14 15:52:49;;;;;;;3.80;0.98;;;;;;;;;;5079321;28;20183;-80
2022/05/14 15:55:57;;;;;;;1.77;0.85;;;;;;;;;;5079718;28;20185;-79
2022/05/14 15:59:01;;;;;;;2.53;1.00;;;;;;;;;;5079334;28;20534;-79
2022/05/14 16:02:06;;;;;;;4.13;0.82;;;;;;;;;;5054452;28;20211;-78
2022/05/14 16:05:11;;;;;;;4.73;1.07;;;;;;;;;;5066899;28;20540;-79
2022/05/14 16:18:36;;;;;;;5.07;1.37;;;;;;;;;;4936531;28;20183;-90
2022/05/14 16:21:40;;;;;;;2.57;1.20;;;;;;;;;;4945030;29;20585;-89
2022/05/14 16:24:44;;;;;;;1.97;0.90;;;;;;;;;;4951087;29;20188;-89
2022/05/14 16:27:49;;;;;;;1.80;0.90;;;;;;;;;;4934532;29;20637;-89
2022/05/14 16:30:54;;;;;;;2.13;1.07;;;;;;;;;;4943972;29;20191;-89
2022/05/14 16:33:58;;;;;;;1.37;0.80;;;;;;;;;;4948326;28;20202;-88
2022/05/14 16:37:02;;;;;;;2.53;1.20;;;;;;;;;;4964251;28;20182;-89
2022/05/14 16:40:07;;;;;;;4.13;1.00;;;;;;;;;;4963781;28;20228;-89
2022/05/14 16:43:11;;;;;;;2.73;0.90;;;;;;;;;;4953135;28;20179;-89
2022/05/14 16:46:15;;;;;;;2.30;0.90;;;;;;;;;;4953296;28;20180;-89
2022/05/14 16:49:19;;;;;;;3.73;1.00;;;;;;;;;;4952916;28;20561;-89
2022/05/14 16:52:23;;;;;;;2.40;0.90;;;;;;;;;;4959384;28;20191;-89
2022/05/14 16:55:29;;;;;;;1.87;1.10;;;;;;;;;;4963855;28;20188;-89
2022/05/14 16:58:34;;;;;;;2.70;0.90;;;;;;;;;;4952567;28;20200;-88
2022/05/14 17:01:39;;;;;;;2.90;1.20;;;;;;;;;;4963655;28;20215;-89
2022/05/14 17:04:43;;;;;;;4.33;1.20;;;;;;;;;;4963720;28;20206;-86
2022/05/14 17:07:49;;;;;;;2.73;1.00;;;;;;;;;;4964078;28;20195;-86
2022/05/14 17:10:54;;;;;;;1.27;0.70;;;;;;;;;;4964356;28;20179;-86
2022/05/14 17:13:58;;;;;;;2.70;0.90;;;;;;;;;;4952756;28;20187;-86
2022/05/14 17:17:02;;;;;;;6.07;1.17;;;;;;;;;;4963468;28;20194;-86
2022/05/14 17:20:10;;;;;;;2.10;0.90;;;;;;;;;;4963546;28;20226;-86
2022/05/14 17:23:15;;;;;;;2.37;1.00;;;;;;;;;;4952864;28;20532;-86
2022/05/14 17:26:19;;;;;;;3.27;1.00;;;;;;;;;;4955991;29;20179;-86
2022/05/14 17:29:23;;;;;;;2.83;0.90;;;;;;;;;;4937465;28;20222;-86
2022/05/14 17:32:27;;;;;;;2.60;1.10;;;;;;;;;;4952427;28;20182;-86
2022/05/14 17:35:33;;;;;;;8.77;1.47;;;;;;;;;;4943749;29;20191;-86
2022/05/14 17:41:59;;;;;;;3.70;1.20;;;;;;;;;;4962756;28;20215;-86
2022/05/14 17:45:07;;;;;;;3.10;1.20;;;;;;;;;;4950307;28;20203;-85
2022/05/14 17:48:12;;;;;;;5.27;1.13;;;;;;;;;;4965132;28;20527;-85
2022/05/14 17:51:16;;;;;;;4.50;1.10;;;;;;;;;;4965448;28;20187;-85
2022/05/14 17:54:20;;;;;;;3.53;1.00;;;;;;;;;;4964348;28;20190;-86
2022/05/14 17:57:25;;;;;;;2.73;0.93;;;;;;;;;;4953564;28;20174;-86
2022/05/14 18:00:34;;;;;;;1.73;0.80;;;;;;;;;;4963068;28;20226;-85
2022/05/14 18:03:41;;;;;;;2.90;1.20;;;;;;;;;;4951727;28;20191;-86
2022/05/14 18:06:48;;;;;;;3.87;1.00;;;;;;;;;;4942595;29;20200;-86
2022/05/14 18:09:52;;;;;;;3.00;1.00;;;;;;;;;;4921624;29;20297;-86
2022/05/14 18:12:56;;;;;;;4.97;1.00;;;;;;;;;;4950162;28;20530;-86
2022/05/14 18:16:01;;;;;;;3.40;1.20;;;;;;;;;;4941711;28;20175;-86
2022/05/14 18:19:05;;;;;;;3.23;1.23;;;;;;;;;;4935112;28;20215;-85
2022/05/14 18:22:10;;;;;;;4.30;0.90;;;;;;;;;;4948776;28;20214;-85
2022/05/14 18:25:17;;;;;;;11.50;1.50;;;;;;;;;;4951863;28;20191;-86
2022/05/14 18:28:23;;;;;;;2.83;1.00;;;;;;;;;;4966012;28;20179;-86
2022/05/14 18:31:28;;;;;;;1.60;0.90;;;;;;;;;;4956835;29;20179;-86
2022/05/14 18:34:33;;;;;;;2.90;1.07;;;;;;;;;;4940102;28;20282;-85
2022/05/14 18:37:38;;;;;;;4.10;1.73;;;;;;;;;;4948220;28;20190;-85
2022/05/14 18:40:44;;;;;;;2.90;1.40;;;;;;;;;;4945724;29;20227;-85
2022/05/14 18:43:48;;;;;;;2.17;0.97;;;;;;;;;;4935521;28;20188;-86
2022/05/14 18:46:53;;;;;;;2.23;1.20;;;;;;;;;;4945979;29;20203;-85
2022/05/14 18:49:57;;;;;;;1.60;1.00;;;;;;;;;;4953160;28;20222;-85
2022/05/14 18:53:01;;;;;;;1.97;1.07;;;;;;;;;;4938960;29;20184;-85
2022/05/14 18:56:06;;;;;;;1.83;1.33;;;;;;;;;;4948328;29;20535;-85
2022/05/14 18:59:10;;;;;;;1.27;0.80;;;;;;;;;;4943740;28;20725;-86
2022/05/14 19:02:14;;;;;;;3.00;1.20;;;;;;;;;;4955310;28;20223;-85
2022/05/14 19:08:41;;;;;;;4.53;1.40;;;;;;;;;;4966312;28;20227;-85
2022/05/14 19:11:49;;;;;;;2.37;1.10;;;;;;;;;;4967071;28;20183;-85
2022/05/14 19:14:53;;;;;;;6.27;1.10;;;;;;;;;;4966381;28;20546;-86
2022/05/14 19:17:59;;;;;;;3.80;1.07;;;;;;;;;;4966259;28;20195;-85
2022/05/14 19:21:04;;;;;;;1.37;0.90;;;;;;;;;;4965994;28;20550;-86
2022/05/14 19:24:08;;;;;;;1.93;1.10;;;;;;;;;;4965573;28;20527;-86
2022/05/14 19:27:13;;;;;;;1.77;1.03;;;;;;;;;;4965951;28;20199;-85
2022/05/14 19:30:17;;;;;;;2.83;0.90;;;;;;;;;;4965750;28;20223;-85
2022/05/14 19:33:22;;;;;;;2.43;1.20;;;;;;;;;;4966773;28;20187;-85